Time;durP1;ratioP1;P1;durP2;ratioP2;P2;SDS_P1;SDS_P2;PMS_P1;PMS_P2;Temp;Humidity;BMP_temperature;BMP_pressure;BME280_temperature;BME280_humidity;BME280_pressure;Samples;Min_cycle;Max_cycle;Signal;HPM_P1;HPM_P2
2023/08/31 00:02:05;;;;;;;4.10;3.40;;;;;;;;;;5087379;28;20093;-77
2023/08/31 00:04:30;;;;;;;5.03;3.33;;;;;;;;;;5086823;28;20539;-77
2023/08/31 00:06:56;;;;;;;4.75;3.63;;;;;;;;;;5094978;28;20035;-77
2023/08/31 00:09:23;;;;;;;5.75;4.07;;;;;;;;;;5095786;28;20052;-78
2023/08/31 00:11:50;;;;;;;7.63;4.07;;;;;;;;;;5075083;28;20028;-77
2023/08/31 00:14:15;;;;;;;7.22;4.15;;;;;;;;;;5076723;28;20085;-77
2023/08/31 00:16:41;;;;;;;7.40;4.88;;;;;;;;;;5081442;28;20148;-77
2023/08/31 00:19:06;;;;;;;5.78;4.07;;;;;;;;;;5080996;28;20032;-77
2023/08/31 00:21:32;;;;;;;9.35;4.07;;;;;;;;;;5086357;28;20445;-77
2023/08/31 00:23:59;;;;;;;8.25;3.85;;;;;;;;;;5085577;28;20503;-78
2023/08/31 00:26:25;;;;;;;7.28;4.53;;;;;;;;;;5076067;28;20089;-78
2023/08/31 00:28:51;;;;;;;5.22;4.05;;;;;;;;;;5076002;28;20411;-77
2023/08/31 00:31:17;;;;;;;10.48;4.57;;;;;;;;;;5084370;28;20028;-77
2023/08/31 00:33:43;;;;;;;7.30;4.55;;;;;;;;;;5087173;28;20077;-77
2023/08/31 00:36:09;;;;;;;7.70;3.90;;;;;;;;;;5095004;28;20038;-77
2023/08/31 00:38:34;;;;;;;5.50;3.97;;;;;;;;;;5092548;28;20032;-77
2023/08/31 00:41:00;;;;;;;4.70;4.10;;;;;;;;;;5092467;28;20032;-77
2023/08/31 00:43:25;;;;;;;8.13;5.05;;;;;;;;;;5060647;28;20024;-77
2023/08/31 00:45:57;;;;;;;7.85;4.70;;;;;;;;;;5074377;28;20029;-78
2023/08/31 00:48:23;;;;;;;6.80;4.50;;;;;;;;;;5083904;28;20035;-77
2023/08/31 00:50:50;;;;;;;6.63;3.95;;;;;;;;;;5073653;28;20473;-77
2023/08/31 00:53:17;;;;;;;6.93;4.38;;;;;;;;;;5079995;28;20077;-77
2023/08/31 00:55:44;;;;;;;8.32;4.22;;;;;;;;;;5081648;28;20058;-77
2023/08/31 00:58:10;;;;;;;6.10;3.67;;;;;;;;;;5078253;28;20028;-77
2023/08/31 01:00:49;;;;;;;8.90;3.80;;;;;;;;;;5073600;28;20069;-78
2023/08/31 01:03:37;;;;;;;5.32;4.22;;;;;;;;;;5097068;28;20066;-79
2023/08/31 01:06:27;;;;;;;7.82;4.13;;;;;;;;;;5105312;28;20153;-78
2023/08/31 01:09:18;;;;;;;5.57;3.75;;;;;;;;;;5079811;28;20056;-78
2023/08/31 01:11:59;;;;;;;5.63;3.70;;;;;;;;;;5085379;28;20743;-78
2023/08/31 01:14:32;;;;;;;7.30;5.05;;;;;;;;;;5088331;28;20496;-78
2023/08/31 01:16:59;;;;;;;6.82;4.53;;;;;;;;;;5089823;28;20036;-78
2023/08/31 01:19:40;;;;;;;9.85;5.20;;;;;;;;;;5090307;28;20062;-78
2023/08/31 01:22:11;;;;;;;6.55;3.92;;;;;;;;;;5089480;28;20115;-77
2023/08/31 01:24:38;;;;;;;6.25;3.95;;;;;;;;;;5082596;28;20040;-78
2023/08/31 01:27:04;;;;;;;8.15;4.30;;;;;;;;;;5090622;28;20059;-78
2023/08/31 01:29:30;;;;;;;5.30;3.85;;;;;;;;;;5072258;28;20044;-77
2023/08/31 01:31:56;;;;;;;6.90;4.57;;;;;;;;;;5084409;28;20040;-77
2023/08/31 01:34:21;;;;;;;6.15;3.80;;;;;;;;;;5092766;28;20036;-78
2023/08/31 01:36:57;;;;;;;4.80;3.45;;;;;;;;;;5077178;28;20182;-78
2023/08/31 01:39:43;;;;;;;6.60;3.22;;;;;;;;;;5073297;28;20119;-77
2023/08/31 01:42:13;;;;;;;4.70;3.10;;;;;;;;;;5073870;28;20098;-77
2023/08/31 01:44:39;;;;;;;4.57;3.10;;;;;;;;;;5073757;28;20055;-78
2023/08/31 01:47:06;;;;;;;6.45;3.85;;;;;;;;;;5069339;28;20033;-77
2023/08/31 01:49:39;;;;;;;4.75;3.30;;;;;;;;;;5068097;28;20056;-78
2023/08/31 01:52:05;;;;;;;6.00;3.80;;;;;;;;;;5074873;28;20107;-78
2023/08/31 01:54:31;;;;;;;9.00;4.10;;;;;;;;;;5065744;28;20036;-78
2023/08/31 01:56:57;;;;;;;3.72;3.17;;;;;;;;;;5090455;28;20666;-77
2023/08/31 01:59:22;;;;;;;5.80;3.15;;;;;;;;;;5090897;28;20115;-78
2023/08/31 02:01:48;;;;;;;5.80;4.13;;;;;;;;;;5078912;28;20041;-77
2023/08/31 02:04:14;;;;;;;5.28;3.28;;;;;;;;;;5073671;28;20404;-78
2023/08/31 02:06:40;;;;;;;7.07;4.20;;;;;;;;;;5072829;28;20629;-77
2023/08/31 02:09:07;;;;;;;6.30;3.40;;;;;;;;;;5071809;28;20052;-77
2023/08/31 02:11:37;;;;;;;6.82;3.65;;;;;;;;;;5072312;28;20511;-77
2023/08/31 02:14:04;;;;;;;6.18;3.63;;;;;;;;;;5058072;28;20043;-77
2023/08/31 02:16:30;;;;;;;8.45;4.05;;;;;;;;;;5074451;28;20123;-77
2023/08/31 02:18:55;;;;;;;5.45;3.50;;;;;;;;;;5073798;28;20121;-78
2023/08/31 02:21:22;;;;;;;3.63;3.03;;;;;;;;;;5074393;28;20036;-77
2023/08/31 02:23:52;;;;;;;5.50;3.42;;;;;;;;;;5088757;28;20105;-78
2023/08/31 02:26:17;;;;;;;7.35;3.60;;;;;;;;;;5092178;28;20032;-78
2023/08/31 02:28:45;;;;;;;6.97;3.85;;;;;;;;;;5091703;28;20028;-78
2023/08/31 02:31:12;;;;;;;6.32;3.80;;;;;;;;;;5085205;28;20131;-78
2023/08/31 02:33:37;;;;;;;5.05;3.75;;;;;;;;;;5071686;28;20107;-77
2023/08/31 02:36:03;;;;;;;5.75;3.70;;;;;;;;;;5055458;28;20468;-78
2023/08/31 02:38:28;;;;;;;5.78;3.67;;;;;;;;;;5072190;28;20507;-78
2023/08/31 02:40:54;;;;;;;5.65;3.40;;;;;;;;;;5054314;28;20380;-78
2023/08/31 02:43:20;;;;;;;4.50;3.20;;;;;;;;;;5053760;28;20633;-78
2023/08/31 02:45:48;;;;;;;5.25;3.40;;;;;;;;;;5073737;28;20062;-78
2023/08/31 02:48:13;;;;;;;8.05;3.80;;;;;;;;;;5072074;28;20661;-77
2023/08/31 02:50:41;;;;;;;5.22;3.50;;;;;;;;;;5054446;28;20033;-77
2023/08/31 02:53:06;;;;;;;5.72;3.95;;;;;;;;;;5055760;28;20112;-77
2023/08/31 02:55:33;;;;;;;6.13;4.32;;;;;;;;;;5070663;28;20044;-77
2023/08/31 02:57:58;;;;;;;4.05;3.42;;;;;;;;;;5070805;28;20669;-76
2023/08/31 03:00:24;;;;;;;5.18;3.85;;;;;;;;;;5069596;28;20135;-77
2023/08/31 03:02:53;;;;;;;7.38;4.22;;;;;;;;;;5053332;28;20086;-77
2023/08/31 03:05:21;;;;;;;10.25;4.63;;;;;;;;;;5077436;28;20065;-77
2023/08/31 03:07:46;;;;;;;8.90;4.00;;;;;;;;;;5070503;28;20037;-77
2023/08/31 03:10:12;;;;;;;6.47;3.78;;;;;;;;;;5055719;28;20037;-77
2023/08/31 03:12:38;;;;;;;5.70;3.92;;;;;;;;;;5044058;28;20112;-77
2023/08/31 03:15:07;;;;;;;8.65;4.05;;;;;;;;;;5071251;28;20109;-76
2023/08/31 03:17:32;;;;;;;8.13;4.30;;;;;;;;;;5069896;28;20028;-76
2023/08/31 03:19:58;;;;;;;5.90;3.92;;;;;;;;;;5062800;28;20394;-77
2023/08/31 03:22:23;;;;;;;5.03;3.75;;;;;;;;;;5053438;28;20064;-77
2023/08/31 03:24:49;;;;;;;4.75;3.50;;;;;;;;;;5072838;28;20028;-77
2023/08/31 03:27:15;;;;;;;6.78;3.65;;;;;;;;;;5070945;28;20029;-77
2023/08/31 03:29:41;;;;;;;5.65;3.40;;;;;;;;;;5070098;28;20068;-77
2023/08/31 03:32:07;;;;;;;5.55;3.72;;;;;;;;;;5069336;28;20063;-77
2023/08/31 03:34:32;;;;;;;5.63;3.63;;;;;;;;;;5069825;28;20036;-77
2023/08/31 03:36:58;;;;;;;6.00;3.28;;;;;;;;;;5071394;28;20033;-77
2023/08/31 03:39:25;;;;;;;7.15;3.60;;;;;;;;;;5070228;28;20037;-77
2023/08/31 03:41:50;;;;;;;4.22;3.80;;;;;;;;;;5070883;28;20071;-77
2023/08/31 03:44:15;;;;;;;5.90;4.18;;;;;;;;;;5070298;28;20052;-77
2023/08/31 03:46:41;;;;;;;4.57;3.88;;;;;;;;;;5070121;28;20048;-77
2023/08/31 03:49:06;;;;;;;4.57;3.65;;;;;;;;;;5070015;28;20064;-77
2023/08/31 03:51:32;;;;;;;5.82;3.90;;;;;;;;;;5070705;28;20115;-77
2023/08/31 03:53:57;;;;;;;9.07;3.97;;;;;;;;;;5072818;28;20055;-77
2023/08/31 03:56:23;;;;;;;5.85;3.70;;;;;;;;;;5072488;28;20078;-77
2023/08/31 03:58:49;;;;;;;6.68;4.38;;;;;;;;;;5073294;28;20032;-77
2023/08/31 04:01:14;;;;;;;5.22;3.97;;;;;;;;;;5074259;28;20089;-77
2023/08/31 04:03:44;;;;;;;6.93;4.57;;;;;;;;;;5073459;28;20075;-77
2023/08/31 04:06:09;;;;;;;5.18;3.97;;;;;;;;;;5073159;28;20031;-77
2023/08/31 04:08:39;;;;;;;4.25;3.72;;;;;;;;;;5074599;28;20068;-77
2023/08/31 04:11:05;;;;;;;5.20;4.32;;;;;;;;;;5072914;28;20137;-77
2023/08/31 04:13:30;;;;;;;4.22;3.83;;;;;;;;;;5073069;28;20081;-77
2023/08/31 04:15:56;;;;;;;8.57;5.25;;;;;;;;;;5074371;28;20047;-77
2023/08/31 04:18:21;;;;;;;7.88;5.85;;;;;;;;;;5074491;28;20032;-77
2023/08/31 04:20:52;;;;;;;23.60;6.45;;;;;;;;;;5056093;28;20111;-77
2023/08/31 04:23:18;;;;;;;8.57;6.32;;;;;;;;;;5073380;28;20410;-77
2023/08/31 04:25:45;;;;;;;7.35;5.80;;;;;;;;;;5074583;28;20036;-77
2023/08/31 04:28:10;;;;;;;6.60;4.95;;;;;;;;;;5073609;28;20024;-77
2023/08/31 04:30:36;;;;;;;7.75;5.93;;;;;;;;;;5075065;28;20381;-77
2023/08/31 04:33:04;;;;;;;7.40;5.95;;;;;;;;;;5075265;28;20028;-76
2023/08/31 04:35:31;;;;;;;8.13;5.80;;;;;;;;;;5074215;28;20044;-77
2023/08/31 04:37:56;;;;;;;7.13;5.25;;;;;;;;;;5073775;28;20074;-77
2023/08/31 04:40:22;;;;;;;6.00;4.82;;;;;;;;;;5073566;28;20037;-77
2023/08/31 04:42:47;;;;;;;5.95;4.45;;;;;;;;;;5073386;28;20040;-77
2023/08/31 04:45:13;;;;;;;4.63;3.80;;;;;;;;;;5074207;28;20066;-77
2023/08/31 04:47:38;;;;;;;4.03;3.40;;;;;;;;;;5072811;28;20048;-77
2023/08/31 04:50:06;;;;;;;6.30;3.78;;;;;;;;;;5072894;28;20119;-77
2023/08/31 04:52:32;;;;;;;4.38;3.70;;;;;;;;;;5073330;28;20047;-77
2023/08/31 04:54:57;;;;;;;3.53;3.17;;;;;;;;;;5073859;28;20032;-77
2023/08/31 04:57:24;;;;;;;3.35;3.05;;;;;;;;;;5073942;28;20511;-77
2023/08/31 04:59:49;;;;;;;3.72;2.92;;;;;;;;;;5073746;28;20078;-77
2023/08/31 05:02:15;;;;;;;3.20;2.90;;;;;;;;;;5073986;28;20056;-76
2023/08/31 05:04:40;;;;;;;4.70;3.47;;;;;;;;;;5073687;28;20035;-77
2023/08/31 05:07:06;;;;;;;4.75;3.22;;;;;;;;;;5073710;28;20503;-77
2023/08/31 05:09:34;;;;;;;4.25;3.20;;;;;;;;;;5073591;28;20094;-77
2023/08/31 05:12:02;;;;;;;4.05;3.58;;;;;;;;;;5073026;28;20064;-78
2023/08/31 05:14:28;;;;;;;4.72;3.78;;;;;;;;;;5072266;28;20472;-77
2023/08/31 05:16:54;;;;;;;4.40;3.65;;;;;;;;;;5073887;28;20089;-77
2023/08/31 05:19:19;;;;;;;3.60;2.95;;;;;;;;;;5073685;28;20483;-77
2023/08/31 05:21:45;;;;;;;5.82;3.33;;;;;;;;;;5072145;28;20041;-78
2023/08/31 05:24:10;;;;;;;8.23;3.63;;;;;;;;;;5074760;28;20032;-77
2023/08/31 05:26:36;;;;;;;4.10;3.55;;;;;;;;;;5074039;28;20040;-76
2023/08/31 05:29:03;;;;;;;6.70;3.60;;;;;;;;;;5067857;28;20033;-77
2023/08/31 05:31:29;;;;;;;8.40;3.72;;;;;;;;;;5080089;28;20540;-76
2023/08/31 05:33:55;;;;;;;8.95;4.38;;;;;;;;;;5072051;28;20033;-77
2023/08/31 05:36:20;;;;;;;4.93;3.50;;;;;;;;;;5072235;28;20048;-76
2023/08/31 05:38:46;;;;;;;3.42;3.00;;;;;;;;;;5073643;28;20048;-76
2023/08/31 05:41:14;;;;;;;6.28;3.35;;;;;;;;;;5072801;28;20048;-76
2023/08/31 05:43:42;;;;;;;3.92;2.83;;;;;;;;;;5071760;28;20028;-77
2023/08/31 05:46:08;;;;;;;7.28;3.35;;;;;;;;;;5072900;28;20036;-76
2023/08/31 05:48:35;;;;;;;4.43;3.08;;;;;;;;;;5070298;28;20369;-77
2023/08/31 05:51:01;;;;;;;4.03;3.10;;;;;;;;;;5069941;28;20036;-77
2023/08/31 05:53:26;;;;;;;5.90;3.45;;;;;;;;;;5069982;28;20047;-77
2023/08/31 05:55:54;;;;;;;5.95;3.85;;;;;;;;;;5067665;28;20043;-77
2023/08/31 05:58:20;;;;;;;4.78;3.42;;;;;;;;;;5071710;28;20039;-76
2023/08/31 06:00:45;;;;;;;5.22;4.35;;;;;;;;;;5070855;28;20036;-77
2023/08/31 06:03:11;;;;;;;7.63;4.40;;;;;;;;;;5073046;28;20111;-77
2023/08/31 06:05:36;;;;;;;7.75;4.40;;;;;;;;;;5078910;28;20055;-78
2023/08/31 06:08:02;;;;;;;5.38;3.72;;;;;;;;;;5085556;28;20117;-77
2023/08/31 06:10:29;;;;;;;6.40;4.65;;;;;;;;;;5087736;28;20104;-78
2023/08/31 06:12:54;;;;;;;7.40;4.78;;;;;;;;;;5088537;28;20046;-78
2023/08/31 06:15:19;;;;;;;9.35;4.35;;;;;;;;;;5090302;28;20165;-78
2023/08/31 06:17:45;;;;;;;6.10;3.95;;;;;;;;;;5089310;28;20079;-78
2023/08/31 06:20:11;;;;;;;4.38;3.70;;;;;;;;;;5089594;28;20036;-78
2023/08/31 06:22:36;;;;;;;7.35;4.35;;;;;;;;;;5090121;28;20028;-78
2023/08/31 06:25:04;;;;;;;4.93;3.90;;;;;;;;;;5091204;28;20303;-78
2023/08/31 06:27:29;;;;;;;7.55;4.25;;;;;;;;;;5090659;28;20075;-78
2023/08/31 06:29:55;;;;;;;4.13;3.70;;;;;;;;;;5090566;28;20439;-78
2023/08/31 06:32:21;;;;;;;5.85;3.65;;;;;;;;;;5089821;28;20040;-78
2023/08/31 06:34:47;;;;;;;6.82;4.10;;;;;;;;;;5087886;28;20036;-78
2023/08/31 06:37:12;;;;;;;7.53;4.28;;;;;;;;;;5087794;28;20032;-78
2023/08/31 06:39:37;;;;;;;8.25;4.78;;;;;;;;;;5089319;28;20069;-78
2023/08/31 06:42:03;;;;;;;6.78;4.07;;;;;;;;;;5086529;28;20040;-78
2023/08/31 06:44:30;;;;;;;5.57;4.10;;;;;;;;;;5087010;28;20032;-78
2023/08/31 06:46:55;;;;;;;5.60;3.58;;;;;;;;;;5086726;28;20512;-78
2023/08/31 06:49:22;;;;;;;5.90;3.65;;;;;;;;;;5091233;28;20043;-78
2023/08/31 06:51:47;;;;;;;5.13;3.70;;;;;;;;;;5091779;28;20100;-78
2023/08/31 06:54:13;;;;;;;8.65;4.13;;;;;;;;;;5081302;28;20037;-79
2023/08/31 06:56:38;;;;;;;5.45;4.18;;;;;;;;;;5070828;28;20069;-78
2023/08/31 06:59:04;;;;;;;8.32;4.15;;;;;;;;;;5082237;28;20033;-76
2023/08/31 07:01:29;;;;;;;6.32;4.15;;;;;;;;;;5072431;28;20123;-77
2023/08/31 07:03:55;;;;;;;8.32;3.88;;;;;;;;;;5073765;28;20063;-77
2023/08/31 07:06:21;;;;;;;7.32;4.18;;;;;;;;;;5073240;28;20044;-77
2023/08/31 07:08:47;;;;;;;6.75;3.58;;;;;;;;;;5072810;28;20056;-76
2023/08/31 07:11:13;;;;;;;5.85;3.50;;;;;;;;;;5072280;28;20426;-77
2023/08/31 07:13:38;;;;;;;7.82;3.10;;;;;;;;;;5074387;28;20488;-77
2023/08/31 07:16:05;;;;;;;5.55;3.30;;;;;;;;;;5074749;28;20047;-77
2023/08/31 07:18:31;;;;;;;5.82;3.20;;;;;;;;;;5073582;28;20434;-78
2023/08/31 07:20:56;;;;;;;7.32;3.70;;;;;;;;;;5072955;28;20047;-77
2023/08/31 07:23:22;;;;;;;5.20;2.80;;;;;;;;;;5071852;28;20476;-77
2023/08/31 07:25:47;;;;;;;5.20;2.78;;;;;;;;;;5073007;28;20036;-77
2023/08/31 07:28:13;;;;;;;4.93;2.92;;;;;;;;;;5073717;28;20119;-77
2023/08/31 07:30:38;;;;;;;7.35;2.58;;;;;;;;;;5075487;28;20033;-77
2023/08/31 07:33:04;;;;;;;4.88;2.70;;;;;;;;;;5076049;28;20025;-77
2023/08/31 07:35:30;;;;;;;4.05;2.40;;;;;;;;;;5063658;28;20032;-78
2023/08/31 07:37:55;;;;;;;5.25;2.58;;;;;;;;;;5077224;28;20035;-76
2023/08/31 07:40:21;;;;;;;4.15;2.63;;;;;;;;;;5075724;28;20036;-76
2023/08/31 07:42:46;;;;;;;3.38;2.30;;;;;;;;;;5083295;28;20036;-78
2023/08/31 07:45:12;;;;;;;4.40;2.30;;;;;;;;;;5085595;28;20043;-78
2023/08/31 07:47:37;;;;;;;4.82;2.60;;;;;;;;;;5084666;28;20060;-78
2023/08/31 07:50:03;;;;;;;6.95;2.90;;;;;;;;;;5083203;28;20040;-78
2023/08/31 07:52:29;;;;;;;6.57;3.05;;;;;;;;;;5081636;28;20033;-77
2023/08/31 07:54:54;;;;;;;5.20;2.92;;;;;;;;;;5084822;28;20032;-78
2023/08/31 07:57:19;;;;;;;5.60;3.35;;;;;;;;;;5085306;28;20064;-78
2023/08/31 07:59:45;;;;;;;2.60;2.40;;;;;;;;;;5086381;28;20074;-79
2023/08/31 08:02:10;;;;;;;4.95;2.50;;;;;;;;;;5090342;28;20036;-77
2023/08/31 08:04:36;;;;;;;6.25;2.58;;;;;;;;;;5090584;28;20039;-78
2023/08/31 08:07:03;;;;;;;5.97;2.38;;;;;;;;;;5073283;28;20074;-77
